createdAt,value
2023-03-06T00:00:42.262Z,5.93
2023-03-06T00:05:45.277Z,6.00
2023-03-06T00:10:48.240Z,6.30
2023-03-06T00:15:52.665Z,5.90
2023-03-06T00:20:55.618Z,5.83
2023-03-06T00:25:58.526Z,5.93
2023-03-06T00:31:02.877Z,7.40
2023-03-06T00:36:06.324Z,6.27
2023-03-06T00:41:10.618Z,6.37
2023-03-06T00:46:15.028Z,6.23
2023-03-06T00:51:19.737Z,7.40
2023-03-06T00:56:22.764Z,5.73
2023-03-06T01:01:27.046Z,6.57
2023-03-06T01:06:30.031Z,8.27
2023-03-06T01:11:32.951Z,5.40
2023-03-06T01:16:37.338Z,7.47
2023-03-06T01:21:40.411Z,7.53
2023-03-06T01:26:43.544Z,8.70
2023-03-06T01:31:47.916Z,8.43
2023-03-06T01:36:50.875Z,9.90
2023-03-06T01:41:53.778Z,9.70
2023-03-06T01:46:58.020Z,7.50
2023-03-06T01:52:05.113Z,8.47
2023-03-06T01:57:12.492Z,7.50
2023-03-06T02:02:17.521Z,11.27
2023-03-06T02:07:21.926Z,9.20
2023-03-06T02:12:25.137Z,9.03
2023-03-06T02:17:30.386Z,11.53
2023-03-06T02:22:41.423Z,9.53
2023-03-06T02:27:45.786Z,9.20
2023-03-06T02:32:48.654Z,8.90
2023-03-06T02:37:52.482Z,11.90
2023-03-06T02:42:58.569Z,11.13
2023-03-06T02:48:01.618Z,11.43
2023-03-06T02:53:05.191Z,11.27
2023-03-06T02:58:09.595Z,10.60
2023-03-06T03:03:12.563Z,10.00
2023-03-06T03:08:15.966Z,9.37
2023-03-06T03:13:20.523Z,11.87
2023-03-06T03:18:24.831Z,13.40
2023-03-06T03:23:28.592Z,11.37
2023-03-06T03:28:35.344Z,11.17
2023-03-06T03:33:38.442Z,11.43
2023-03-06T03:38:41.676Z,15.47
2023-03-06T03:43:46.076Z,12.83
2023-03-06T03:48:49.164Z,13.20
2023-03-06T03:53:52.967Z,9.80
2023-03-06T03:59:01.476Z,12.27
2023-03-06T04:04:09.873Z,13.30
2023-03-06T04:09:13.967Z,10.47
2023-03-06T04:14:19.336Z,13.63
2023-03-06T04:19:22.715Z,9.67
2023-03-06T04:24:26.381Z,14.97
2023-03-06T04:29:30.735Z,11.00
2023-03-06T04:34:33.634Z,10.00
2023-03-06T04:39:37.290Z,10.40
2023-03-06T04:44:41.774Z,12.00
2023-03-06T04:49:44.806Z,10.77
2023-03-06T04:54:47.729Z,12.13
2023-03-06T04:59:52.280Z,13.50
2023-03-06T05:04:55.158Z,10.10
2023-03-06T05:09:58.119Z,10.67
2023-03-06T05:15:02.701Z,12.00
2023-03-06T05:20:07.388Z,11.13
2023-03-06T05:25:11.686Z,13.00
2023-03-06T05:30:16.656Z,12.77
2023-03-06T05:35:21.297Z,15.00
2023-03-06T05:40:24.222Z,13.30
2023-03-06T05:45:28.563Z,12.13
2023-03-06T05:50:31.533Z,11.80
2023-03-06T05:55:34.438Z,9.57
2023-03-06T06:00:38.780Z,11.80
2023-03-06T06:05:41.793Z,12.87
2023-03-06T06:10:44.767Z,13.97
2023-03-06T06:15:49.027Z,12.83
2023-03-06T06:20:51.989Z,13.70
2023-03-06T06:25:55.411Z,11.83
2023-03-06T06:30:59.690Z,12.60
2023-03-06T06:36:02.696Z,13.17
2023-03-06T06:41:35.627Z,12.70
2023-03-06T06:47:19.271Z,17.50
2023-03-06T06:51:54.482Z,12.53
2023-03-06T06:56:57.402Z,10.43
2023-03-06T07:02:01.737Z,16.20
2023-03-06T07:07:04.734Z,16.17
2023-03-06T07:12:08.636Z,15.93
2023-03-06T07:17:12.901Z,15.00
2023-03-06T07:22:15.785Z,14.90
2023-03-06T07:27:18.698Z,15.57
2023-03-06T07:32:23.026Z,19.20
2023-03-06T07:37:25.975Z,15.87
2023-03-06T07:42:29.291Z,15.47
2023-03-06T07:47:38.374Z,16.70
2023-03-06T07:52:41.334Z,16.90
2023-03-06T07:57:45.092Z,13.57
2023-03-06T08:02:50.150Z,16.50
2023-03-06T08:07:53.173Z,18.07
2023-03-06T08:12:56.141Z,16.43
2023-03-06T08:18:00.395Z,15.60
2023-03-06T08:23:03.253Z,16.60
2023-03-06T08:28:08.817Z,15.33
2023-03-06T08:33:13.077Z,16.90
2023-03-06T08:38:16.410Z,19.13
2023-03-06T08:43:19.282Z,21.40
2023-03-06T08:48:23.560Z,15.90
2023-03-06T08:53:41.759Z,19.67
2023-03-06T08:58:45.438Z,15.33
2023-03-06T09:03:50.104Z,15.70
2023-03-06T09:08:53.572Z,16.37
2023-03-06T09:13:56.897Z,16.97
2023-03-06T09:19:01.207Z,17.23
2023-03-06T09:24:06.495Z,18.53
2023-03-06T09:29:09.759Z,18.30
2023-03-06T09:34:14.207Z,19.50
2023-03-06T09:39:17.135Z,19.13
2023-03-06T09:44:22.440Z,18.07
2023-03-06T09:49:45.779Z,17.27
2023-03-06T09:54:54.725Z,15.97
2023-03-06T10:00:03.501Z,39.17
2023-03-06T10:05:36.062Z,17.90
2023-03-06T10:10:45.674Z,16.30
2023-03-06T10:15:50.582Z,23.60
2023-03-06T10:21:10.326Z,17.73
2023-03-06T10:26:25.736Z,22.50
2023-03-06T10:31:29.813Z,20.27
2023-03-06T10:36:34.140Z,20.73
2023-03-06T10:41:38.324Z,21.23
2023-03-06T10:46:43.204Z,21.67
2023-03-06T10:51:58.097Z,20.17
2023-03-06T10:57:19.887Z,20.93
2023-03-06T11:02:28.565Z,22.00
2023-03-06T11:07:34.131Z,19.17
2023-03-06T11:12:38.972Z,20.77
2023-03-06T11:17:51.700Z,21.07
2023-03-06T11:23:00.243Z,23.07
2023-03-06T11:28:08.393Z,22.40
2023-03-06T11:33:26.639Z,21.37
2023-03-06T11:38:40.324Z,23.53
2023-03-06T11:43:53.880Z,22.00
2023-03-06T11:49:03.421Z,30.23
2023-03-06T11:54:13.626Z,25.20
2023-03-06T11:59:27.114Z,21.30
2023-03-06T12:04:49.498Z,24.40
2023-03-06T12:10:00.104Z,25.90
2023-03-06T12:15:16.992Z,23.77
2023-03-06T12:20:41.104Z,22.00
2023-03-06T12:25:56.107Z,23.90
2023-03-06T12:31:30.222Z,23.10
2023-03-06T12:36:43.027Z,22.80
2023-03-06T12:42:04.992Z,21.50
2023-03-06T12:47:16.344Z,20.47
2023-03-06T12:52:30.396Z,21.07
2023-03-06T12:57:34.963Z,24.13
2023-03-06T13:03:06.349Z,20.60
2023-03-06T13:08:47.763Z,22.10
2023-03-06T13:13:52.235Z,17.27
2023-03-06T13:19:02.147Z,19.03
2023-03-06T13:24:05.875Z,19.37
2023-03-06T13:29:42.011Z,18.33
2023-03-06T13:34:48.508Z,18.97
2023-03-06T13:40:26.118Z,17.93
2023-03-06T13:45:34.503Z,14.60
2023-03-06T13:50:42.099Z,15.27
2023-03-06T13:55:53.039Z,15.83
2023-03-06T14:01:22.312Z,17.00
2023-03-06T14:06:53.056Z,20.63
2023-03-06T14:12:00.497Z,14.97
2023-03-06T14:17:05.841Z,18.27
2023-03-06T14:22:18.668Z,16.73
2023-03-06T14:27:21.834Z,18.90
2023-03-06T14:32:24.810Z,17.40
2023-03-06T14:37:29.344Z,15.30
2023-03-06T14:42:32.299Z,14.23
2023-03-06T14:47:37.488Z,15.47
2023-03-06T14:52:41.823Z,16.10
2023-03-06T14:57:45.207Z,15.20
2023-03-06T15:02:50.528Z,15.07
2023-03-06T15:07:58.234Z,15.40
2023-03-06T15:13:10.290Z,10.50
2023-03-06T15:18:28.773Z,13.00
2023-03-06T15:23:38.770Z,11.60
2023-03-06T15:28:41.799Z,13.00
2023-03-06T15:33:45.168Z,13.00
2023-03-06T15:38:49.497Z,12.97
2023-03-06T15:43:52.409Z,12.90
2023-03-06T15:48:56.642Z,14.30
2023-03-06T15:54:11.942Z,13.17
2023-03-06T15:59:21.634Z,13.07
2023-03-06T16:04:24.812Z,17.10
2023-03-06T16:09:29.061Z,7.67
2023-03-06T16:14:32.071Z,9.33
2023-03-06T16:19:35.042Z,7.90
2023-03-06T16:24:39.325Z,10.70
2023-03-06T16:29:42.189Z,10.50
2023-03-06T16:34:45.177Z,11.10
2023-03-06T16:39:49.433Z,7.70
2023-03-06T16:44:52.365Z,10.00
2023-03-06T16:49:57.989Z,11.77
2023-03-06T16:55:02.403Z,10.30
2023-03-06T17:00:08.101Z,10.60
2023-03-06T17:05:12.878Z,12.80
2023-03-06T17:10:19.659Z,11.47
2023-03-06T17:15:22.714Z,11.70
2023-03-06T17:20:25.698Z,9.60
2023-03-06T17:25:30.074Z,11.50
2023-03-06T17:30:32.967Z,15.40
2023-03-06T17:35:36.477Z,14.43
2023-03-06T17:40:40.844Z,28.30
2023-03-06T17:45:43.829Z,17.63
2023-03-06T17:50:54.276Z,14.20
2023-03-06T17:55:59.079Z,23.23
2023-03-06T18:01:09.913Z,11.10
2023-03-06T18:06:13.443Z,13.50
2023-03-06T18:11:18.285Z,12.33
2023-03-06T18:16:23.291Z,12.37
2023-03-06T18:21:26.622Z,13.97
2023-03-06T18:26:31.440Z,22.80
2023-03-06T18:31:36.300Z,14.20
2023-03-06T18:36:40.457Z,14.43
2023-03-06T18:41:45.034Z,14.80
2023-03-06T18:46:47.964Z,11.83
2023-03-06T18:51:51.044Z,11.30
2023-03-06T18:56:55.485Z,11.80
2023-03-06T19:01:59.260Z,11.93
2023-03-06T19:07:02.169Z,13.90
2023-03-06T19:12:07.385Z,14.70
2023-03-06T19:17:10.487Z,20.63
2023-03-06T19:22:13.426Z,14.90
2023-03-06T19:27:17.769Z,15.70
2023-03-06T19:32:20.819Z,16.73
2023-03-06T19:37:24.294Z,16.33
2023-03-06T19:42:28.683Z,13.93
2023-03-06T19:47:31.611Z,13.63
2023-03-06T19:52:38.270Z,13.23
2023-03-06T19:57:43.388Z,14.27
2023-03-06T20:02:46.298Z,13.60
2023-03-06T20:07:49.886Z,13.70
2023-03-06T20:12:54.111Z,31.23
2023-03-06T20:17:56.963Z,30.03
2023-03-06T20:23:02.626Z,39.47
2023-03-06T20:28:07.038Z,47.83
2023-03-06T20:33:09.981Z,19.37
2023-03-06T20:38:12.865Z,20.27
2023-03-06T20:43:17.124Z,27.90
2023-03-06T20:48:20.077Z,31.30
2023-03-06T20:53:22.940Z,23.20
2023-03-06T20:58:30.055Z,17.73
2023-03-06T21:03:32.989Z,20.40
2023-03-06T21:08:35.890Z,25.60
2023-03-06T21:13:40.372Z,22.17
2023-03-06T21:18:43.717Z,17.30
2023-03-06T21:23:47.493Z,20.53
2023-03-06T21:28:52.241Z,21.60
2023-03-06T21:33:55.423Z,19.40
2023-03-06T21:38:58.448Z,19.40
2023-03-06T21:44:04.513Z,19.50
2023-03-06T21:49:07.406Z,20.70
2023-03-06T21:54:10.325Z,21.20
2023-03-06T21:59:14.838Z,21.17
2023-03-06T22:04:17.790Z,26.87
2023-03-06T22:09:20.742Z,26.47
2023-03-06T22:14:25.026Z,19.97
2023-03-06T22:19:28.337Z,30.00
2023-03-06T22:24:31.705Z,20.70
2023-03-06T22:29:36.278Z,22.17
2023-03-06T22:34:39.319Z,19.60
2023-03-06T22:39:42.164Z,22.00
2023-03-06T22:44:46.527Z,20.63
2023-03-06T22:49:49.421Z,22.10
2023-03-06T22:54:52.306Z,21.77
2023-03-06T22:59:56.771Z,24.67
2023-03-06T23:04:59.698Z,22.77
2023-03-06T23:10:02.603Z,24.80
2023-03-06T23:15:25.568Z,22.37
2023-03-06T23:20:46.852Z,25.33
2023-03-06T23:26:09.675Z,23.07
2023-03-06T23:31:15.486Z,24.73
2023-03-06T23:36:19.586Z,28.40
2023-03-06T23:41:23.658Z,26.00
2023-03-06T23:46:27.970Z,20.77
2023-03-06T23:51:30.987Z,22.40
2023-03-06T23:56:33.975Z,22.70
